sensor_id;sensor_type;location;lat;lon;timestamp;P1;durP1;ratioP1;P2;durP2;ratioP2
74415;SDS011;62850;42.428;25.618;2023-04-06T00:00:36;10.95;;;5.47;;
74415;SDS011;62850;42.428;25.618;2023-04-06T00:03:02;10.00;;;5.32;;
74415;SDS011;62850;42.428;25.618;2023-04-06T00:05:28;10.25;;;5.85;;
74415;SDS011;62850;42.428;25.618;2023-04-06T00:07:55;10.32;;;6.18;;
74415;SDS011;62850;42.428;25.618;2023-04-06T00:10:22;11.18;;;5.60;;
74415;SDS011;62850;42.428;25.618;2023-04-06T00:12:47;10.15;;;5.53;;
74415;SDS011;62850;42.428;25.618;2023-04-06T00:15:13;9.00;;;5.53;;
74415;SDS011;62850;42.428;25.618;2023-04-06T00:17:38;7.47;;;4.72;;
74415;SDS011;62850;42.428;25.618;2023-04-06T00:20:04;8.60;;;4.78;;
74415;SDS011;62850;42.428;25.618;2023-04-06T00:22:30;8.15;;;4.97;;
74415;SDS011;62850;42.428;25.618;2023-04-06T00:24:56;7.88;;;4.68;;
74415;SDS011;62850;42.428;25.618;2023-04-06T00:27:21;8.50;;;4.32;;
74415;SDS011;62850;42.428;25.618;2023-04-06T00:29:47;9.20;;;4.72;;
74415;SDS011;62850;42.428;25.618;2023-04-06T00:32:12;8.48;;;4.85;;
74415;SDS011;62850;42.428;25.618;2023-04-06T00:34:38;10.18;;;4.60;;
74415;SDS011;62850;42.428;25.618;2023-04-06T00:37:03;11.02;;;4.70;;
74415;SDS011;62850;42.428;25.618;2023-04-06T00:39:28;8.07;;;4.63;;
74415;SDS011;62850;42.428;25.618;2023-04-06T00:41:54;7.25;;;4.20;;
74415;SDS011;62850;42.428;25.618;2023-04-06T00:44:21;8.25;;;4.65;;
74415;SDS011;62850;42.428;25.618;2023-04-06T00:46:47;7.97;;;4.53;;
74415;SDS011;62850;42.428;25.618;2023-04-06T00:49:12;13.43;;;4.63;;
74415;SDS011;62850;42.428;25.618;2023-04-06T00:51:38;7.53;;;4.30;;
74415;SDS011;62850;42.428;25.618;2023-04-06T00:54:03;7.55;;;4.18;;
74415;SDS011;62850;42.428;25.618;2023-04-06T00:56:30;8.60;;;3.90;;
74415;SDS011;62850;42.428;25.618;2023-04-06T00:58:56;7.90;;;4.38;;
74415;SDS011;62850;42.428;25.618;2023-04-06T01:01:22;7.25;;;3.80;;
74415;SDS011;62850;42.428;25.618;2023-04-06T01:03:48;7.82;;;3.90;;
74415;SDS011;62850;42.428;25.618;2023-04-06T01:06:15;9.52;;;3.92;;
74415;SDS011;62850;42.428;25.618;2023-04-06T01:08:41;10.00;;;4.85;;
74415;SDS011;62850;42.428;25.618;2023-04-06T01:11:06;10.90;;;5.57;;
74415;SDS011;62850;42.428;25.618;2023-04-06T01:13:32;10.52;;;5.88;;
74415;SDS011;62850;42.428;25.618;2023-04-06T01:15:57;12.15;;;7.00;;
74415;SDS011;62850;42.428;25.618;2023-04-06T01:18:26;16.13;;;7.20;;
74415;SDS011;62850;42.428;25.618;2023-04-06T01:20:52;11.73;;;6.97;;
74415;SDS011;62850;42.428;25.618;2023-04-06T01:23:18;12.68;;;7.35;;
74415;SDS011;62850;42.428;25.618;2023-04-06T01:25:43;14.00;;;8.23;;
74415;SDS011;62850;42.428;25.618;2023-04-06T01:28:09;13.48;;;7.28;;
74415;SDS011;62850;42.428;25.618;2023-04-06T01:30:35;14.43;;;7.18;;
74415;SDS011;62850;42.428;25.618;2023-04-06T01:33:00;12.68;;;7.38;;
74415;SDS011;62850;42.428;25.618;2023-04-06T01:35:26;14.30;;;8.13;;
74415;SDS011;62850;42.428;25.618;2023-04-06T01:37:52;13.70;;;7.68;;
74415;SDS011;62850;42.428;25.618;2023-04-06T01:40:18;13.82;;;7.05;;
74415;SDS011;62850;42.428;25.618;2023-04-06T01:42:44;11.95;;;6.40;;
74415;SDS011;62850;42.428;25.618;2023-04-06T01:45:09;9.63;;;5.07;;
74415;SDS011;62850;42.428;25.618;2023-04-06T01:47:35;10.13;;;5.30;;
74415;SDS011;62850;42.428;25.618;2023-04-06T01:50:01;10.82;;;5.15;;
74415;SDS011;62850;42.428;25.618;2023-04-06T01:52:27;9.25;;;5.15;;
74415;SDS011;62850;42.428;25.618;2023-04-06T01:54:53;8.77;;;5.50;;
74415;SDS011;62850;42.428;25.618;2023-04-06T01:57:19;9.93;;;5.63;;
74415;SDS011;62850;42.428;25.618;2023-04-06T01:59:45;12.05;;;6.55;;
74415;SDS011;62850;42.428;25.618;2023-04-06T02:02:10;11.63;;;6.05;;
74415;SDS011;62850;42.428;25.618;2023-04-06T02:04:37;10.80;;;5.80;;
74415;SDS011;62850;42.428;25.618;2023-04-06T02:07:03;10.60;;;5.30;;
74415;SDS011;62850;42.428;25.618;2023-04-06T02:09:29;10.05;;;5.03;;
74415;SDS011;62850;42.428;25.618;2023-04-06T02:11:54;8.07;;;4.68;;
74415;SDS011;62850;42.428;25.618;2023-04-06T02:14:21;10.02;;;5.43;;
74415;SDS011;62850;42.428;25.618;2023-04-06T02:16:49;11.15;;;5.30;;
74415;SDS011;62850;42.428;25.618;2023-04-06T02:19:14;9.23;;;4.43;;
74415;SDS011;62850;42.428;25.618;2023-04-06T02:21:40;9.55;;;4.38;;
74415;SDS011;62850;42.428;25.618;2023-04-06T02:24:05;9.93;;;5.57;;
74415;SDS011;62850;42.428;25.618;2023-04-06T02:26:31;10.25;;;6.18;;
74415;SDS011;62850;42.428;25.618;2023-04-06T02:28:56;12.55;;;5.68;;
74415;SDS011;62850;42.428;25.618;2023-04-06T02:31:22;11.35;;;5.60;;
74415;SDS011;62850;42.428;25.618;2023-04-06T02:33:47;13.05;;;5.75;;
74415;SDS011;62850;42.428;25.618;2023-04-06T02:36:13;11.35;;;5.00;;
74415;SDS011;62850;42.428;25.618;2023-04-06T02:38:38;9.20;;;5.53;;
74415;SDS011;62850;42.428;25.618;2023-04-06T02:41:04;12.25;;;6.50;;
74415;SDS011;62850;42.428;25.618;2023-04-06T02:43:29;11.77;;;6.68;;
74415;SDS011;62850;42.428;25.618;2023-04-06T02:45:56;13.27;;;7.05;;
74415;SDS011;62850;42.428;25.618;2023-04-06T02:48:21;11.48;;;6.68;;
74415;SDS011;62850;42.428;25.618;2023-04-06T02:50:46;13.18;;;6.55;;
74415;SDS011;62850;42.428;25.618;2023-04-06T02:53:12;9.60;;;5.53;;
74415;SDS011;62850;42.428;25.618;2023-04-06T02:55:37;10.60;;;5.85;;
74415;SDS011;62850;42.428;25.618;2023-04-06T02:58:03;9.77;;;5.35;;
74415;SDS011;62850;42.428;25.618;2023-04-06T03:00:28;9.85;;;5.72;;
74415;SDS011;62850;42.428;25.618;2023-04-06T03:02:54;9.43;;;5.65;;
74415;SDS011;62850;42.428;25.618;2023-04-06T03:05:20;9.60;;;5.65;;
74415;SDS011;62850;42.428;25.618;2023-04-06T03:07:45;9.18;;;5.18;;
74415;SDS011;62850;42.428;25.618;2023-04-06T03:10:11;10.32;;;5.22;;
74415;SDS011;62850;42.428;25.618;2023-04-06T03:12:36;9.73;;;5.00;;
74415;SDS011;62850;42.428;25.618;2023-04-06T03:15:02;9.30;;;5.35;;
74415;SDS011;62850;42.428;25.618;2023-04-06T03:17:27;10.77;;;4.85;;
74415;SDS011;62850;42.428;25.618;2023-04-06T03:19:53;10.63;;;5.18;;
74415;SDS011;62850;42.428;25.618;2023-04-06T03:22:19;12.85;;;6.47;;
74415;SDS011;62850;42.428;25.618;2023-04-06T03:24:45;21.42;;;10.93;;
74415;SDS011;62850;42.428;25.618;2023-04-06T03:27:10;25.48;;;12.50;;
74415;SDS011;62850;42.428;25.618;2023-04-06T03:29:36;18.73;;;9.55;;
74415;SDS011;62850;42.428;25.618;2023-04-06T03:32:02;13.82;;;6.38;;
74415;SDS011;62850;42.428;25.618;2023-04-06T03:34:27;12.18;;;6.00;;
74415;SDS011;62850;42.428;25.618;2023-04-06T03:36:53;17.90;;;8.45;;
74415;SDS011;62850;42.428;25.618;2023-04-06T03:39:18;23.30;;;11.38;;
74415;SDS011;62850;42.428;25.618;2023-04-06T03:41:44;30.90;;;13.90;;
74415;SDS011;62850;42.428;25.618;2023-04-06T03:44:10;25.02;;;12.38;;
74415;SDS011;62850;42.428;25.618;2023-04-06T03:46:35;21.10;;;9.98;;
74415;SDS011;62850;42.428;25.618;2023-04-06T03:49:01;27.35;;;10.50;;
74415;SDS011;62850;42.428;25.618;2023-04-06T03:51:27;20.95;;;10.88;;
74415;SDS011;62850;42.428;25.618;2023-04-06T03:53:52;22.17;;;10.00;;
74415;SDS011;62850;42.428;25.618;2023-04-06T03:56:18;20.95;;;9.98;;
74415;SDS011;62850;42.428;25.618;2023-04-06T03:58:43;20.90;;;9.63;;
74415;SDS011;62850;42.428;25.618;2023-04-06T04:01:10;18.25;;;8.80;;
74415;SDS011;62850;42.428;25.618;2023-04-06T04:03:36;17.30;;;8.68;;
74415;SDS011;62850;42.428;25.618;2023-04-06T04:06:01;15.65;;;7.68;;
74415;SDS011;62850;42.428;25.618;2023-04-06T04:08:27;14.00;;;8.05;;
74415;SDS011;62850;42.428;25.618;2023-04-06T04:10:52;16.17;;;8.10;;
74415;SDS011;62850;42.428;25.618;2023-04-06T04:13:18;21.05;;;9.98;;
74415;SDS011;62850;42.428;25.618;2023-04-06T04:15:44;30.60;;;11.50;;
74415;SDS011;62850;42.428;25.618;2023-04-06T04:18:09;22.27;;;10.38;;
74415;SDS011;62850;42.428;25.618;2023-04-06T04:20:35;22.73;;;10.77;;
74415;SDS011;62850;42.428;25.618;2023-04-06T04:23:00;24.67;;;10.43;;
74415;SDS011;62850;42.428;25.618;2023-04-06T04:25:25;21.42;;;10.02;;
74415;SDS011;62850;42.428;25.618;2023-04-06T04:27:51;17.45;;;8.32;;
74415;SDS011;62850;42.428;25.618;2023-04-06T04:30:16;11.88;;;6.45;;
74415;SDS011;62850;42.428;25.618;2023-04-06T04:32:42;12.95;;;6.15;;
74415;SDS011;62850;42.428;25.618;2023-04-06T04:35:07;9.07;;;5.30;;
74415;SDS011;62850;42.428;25.618;2023-04-06T04:37:33;10.60;;;5.72;;
74415;SDS011;62850;42.428;25.618;2023-04-06T04:40:00;11.05;;;5.47;;
74415;SDS011;62850;42.428;25.618;2023-04-06T04:42:25;12.00;;;5.72;;
74415;SDS011;62850;42.428;25.618;2023-04-06T04:44:51;11.27;;;5.97;;
74415;SDS011;62850;42.428;25.618;2023-04-06T04:47:17;11.30;;;5.95;;
74415;SDS011;62850;42.428;25.618;2023-04-06T04:49:42;10.57;;;5.88;;
74415;SDS011;62850;42.428;25.618;2023-04-06T04:52:08;13.68;;;5.95;;
74415;SDS011;62850;42.428;25.618;2023-04-06T04:54:33;13.18;;;7.10;;
74415;SDS011;62850;42.428;25.618;2023-04-06T04:56:58;16.33;;;7.13;;
74415;SDS011;62850;42.428;25.618;2023-04-06T04:59:24;15.15;;;6.75;;
74415;SDS011;62850;42.428;25.618;2023-04-06T05:01:49;13.68;;;6.82;;
74415;SDS011;62850;42.428;25.618;2023-04-06T05:04:15;18.00;;;9.18;;
74415;SDS011;62850;42.428;25.618;2023-04-06T05:06:40;23.85;;;12.15;;
74415;SDS011;62850;42.428;25.618;2023-04-06T05:09:06;24.83;;;11.88;;
74415;SDS011;62850;42.428;25.618;2023-04-06T05:11:31;25.88;;;12.00;;
74415;SDS011;62850;42.428;25.618;2023-04-06T05:13:56;22.92;;;11.73;;
74415;SDS011;62850;42.428;25.618;2023-04-06T05:16:22;23.05;;;11.68;;
74415;SDS011;62850;42.428;25.618;2023-04-06T05:18:47;24.67;;;12.50;;
74415;SDS011;62850;42.428;25.618;2023-04-06T05:21:13;26.88;;;11.10;;
74415;SDS011;62850;42.428;25.618;2023-04-06T05:23:39;18.50;;;9.88;;
74415;SDS011;62850;42.428;25.618;2023-04-06T05:26:05;25.40;;;11.05;;
74415;SDS011;62850;42.428;25.618;2023-04-06T05:28:30;24.83;;;11.10;;
74415;SDS011;62850;42.428;25.618;2023-04-06T05:30:57;27.38;;;11.27;;
74415;SDS011;62850;42.428;25.618;2023-04-06T05:33:22;24.98;;;12.20;;
74415;SDS011;62850;42.428;25.618;2023-04-06T05:35:49;26.38;;;12.45;;
74415;SDS011;62850;42.428;25.618;2023-04-06T05:38:14;24.92;;;12.85;;
74415;SDS011;62850;42.428;25.618;2023-04-06T05:40:40;26.13;;;12.88;;
74415;SDS011;62850;42.428;25.618;2023-04-06T05:43:06;26.73;;;14.55;;
74415;SDS011;62850;42.428;25.618;2023-04-06T05:45:33;32.42;;;15.05;;
74415;SDS011;62850;42.428;25.618;2023-04-06T05:47:58;27.77;;;13.27;;
74415;SDS011;62850;42.428;25.618;2023-04-06T05:50:24;23.58;;;10.80;;
74415;SDS011;62850;42.428;25.618;2023-04-06T05:52:49;23.25;;;11.52;;
74415;SDS011;62850;42.428;25.618;2023-04-06T05:55:15;26.83;;;12.60;;
74415;SDS011;62850;42.428;25.618;2023-04-06T05:57:40;23.83;;;13.35;;
74415;SDS011;62850;42.428;25.618;2023-04-06T06:00:06;23.67;;;11.95;;
74415;SDS011;62850;42.428;25.618;2023-04-06T06:02:34;19.73;;;11.05;;
74415;SDS011;62850;42.428;25.618;2023-04-06T06:05:00;24.67;;;12.20;;
74415;SDS011;62850;42.428;25.618;2023-04-06T06:07:25;17.45;;;9.60;;
74415;SDS011;62850;42.428;25.618;2023-04-06T06:09:51;21.27;;;9.98;;
74415;SDS011;62850;42.428;25.618;2023-04-06T06:12:17;19.30;;;10.45;;
74415;SDS011;62850;42.428;25.618;2023-04-06T06:14:42;24.35;;;12.98;;
74415;SDS011;62850;42.428;25.618;2023-04-06T06:17:08;27.20;;;16.45;;
74415;SDS011;62850;42.428;25.618;2023-04-06T06:19:33;31.67;;;18.05;;
74415;SDS011;62850;42.428;25.618;2023-04-06T06:21:59;28.35;;;15.70;;
74415;SDS011;62850;42.428;25.618;2023-04-06T06:24:27;26.77;;;11.80;;
74415;SDS011;62850;42.428;25.618;2023-04-06T06:26:53;30.00;;;11.68;;
74415;SDS011;62850;42.428;25.618;2023-04-06T06:29:18;23.63;;;11.60;;
74415;SDS011;62850;42.428;25.618;2023-04-06T06:31:44;26.73;;;11.95;;
74415;SDS011;62850;42.428;25.618;2023-04-06T06:34:09;24.02;;;11.77;;
74415;SDS011;62850;42.428;25.618;2023-04-06T06:36:35;22.88;;;11.07;;
74415;SDS011;62850;42.428;25.618;2023-04-06T06:39:01;22.02;;;10.65;;
74415;SDS011;62850;42.428;25.618;2023-04-06T06:41:28;22.50;;;11.73;;
74415;SDS011;62850;42.428;25.618;2023-04-06T06:43:54;20.48;;;11.88;;
74415;SDS011;62850;42.428;25.618;2023-04-06T06:46:20;22.83;;;13.63;;
74415;SDS011;62850;42.428;25.618;2023-04-06T06:48:45;21.60;;;13.05;;
74415;SDS011;62850;42.428;25.618;2023-04-06T06:51:11;22.23;;;11.77;;
74415;SDS011;62850;42.428;25.618;2023-04-06T06:53:37;18.17;;;9.60;;
74415;SDS011;62850;42.428;25.618;2023-04-06T06:56:02;21.80;;;12.43;;
74415;SDS011;62850;42.428;25.618;2023-04-06T06:58:28;19.70;;;12.75;;
74415;SDS011;62850;42.428;25.618;2023-04-06T07:00:57;24.63;;;13.43;;
74415;SDS011;62850;42.428;25.618;2023-04-06T07:03:23;17.23;;;10.30;;
74415;SDS011;62850;42.428;25.618;2023-04-06T07:05:49;19.48;;;11.77;;
74415;SDS011;62850;42.428;25.618;2023-04-06T07:08:20;17.52;;;10.35;;
74415;SDS011;62850;42.428;25.618;2023-04-06T07:10:47;19.60;;;11.85;;
74415;SDS011;62850;42.428;25.618;2023-04-06T07:13:14;19.25;;;10.75;;
74415;SDS011;62850;42.428;25.618;2023-04-06T07:15:47;19.65;;;12.57;;
74415;SDS011;62850;42.428;25.618;2023-04-06T07:18:12;17.67;;;10.15;;
74415;SDS011;62850;42.428;25.618;2023-04-06T07:20:38;16.20;;;8.65;;
74415;SDS011;62850;42.428;25.618;2023-04-06T07:23:04;22.13;;;9.45;;
74415;SDS011;62850;42.428;25.618;2023-04-06T07:25:30;16.98;;;9.48;;
74415;SDS011;62850;42.428;25.618;2023-04-06T07:27:55;14.13;;;8.93;;
74415;SDS011;62850;42.428;25.618;2023-04-06T07:30:21;16.55;;;8.65;;
74415;SDS011;62850;42.428;25.618;2023-04-06T07:32:47;15.23;;;7.95;;
74415;SDS011;62850;42.428;25.618;2023-04-06T07:35:13;17.23;;;9.45;;
74415;SDS011;62850;42.428;25.618;2023-04-06T07:37:39;17.15;;;8.43;;
74415;SDS011;62850;42.428;25.618;2023-04-06T07:40:05;18.13;;;8.85;;
74415;SDS011;62850;42.428;25.618;2023-04-06T07:42:31;19.10;;;9.50;;
74415;SDS011;62850;42.428;25.618;2023-04-06T07:44:57;21.75;;;10.10;;
74415;SDS011;62850;42.428;25.618;2023-04-06T07:47:23;19.67;;;9.48;;
74415;SDS011;62850;42.428;25.618;2023-04-06T07:49:49;18.08;;;9.57;;
74415;SDS011;62850;42.428;25.618;2023-04-06T07:52:15;15.02;;;8.98;;
74415;SDS011;62850;42.428;25.618;2023-04-06T07:54:40;15.70;;;7.22;;
74415;SDS011;62850;42.428;25.618;2023-04-06T07:57:06;13.57;;;8.10;;
74415;SDS011;62850;42.428;25.618;2023-04-06T07:59:32;13.15;;;8.23;;
74415;SDS011;62850;42.428;25.618;2023-04-06T08:01:57;12.13;;;7.95;;
74415;SDS011;62850;42.428;25.618;2023-04-06T08:04:23;12.13;;;7.25;;
74415;SDS011;62850;42.428;25.618;2023-04-06T08:06:48;12.35;;;8.13;;
74415;SDS011;62850;42.428;25.618;2023-04-06T08:09:14;15.50;;;7.82;;
74415;SDS011;62850;42.428;25.618;2023-04-06T08:11:40;12.00;;;7.13;;
74415;SDS011;62850;42.428;25.618;2023-04-06T08:14:05;12.43;;;7.00;;
74415;SDS011;62850;42.428;25.618;2023-04-06T08:16:31;13.60;;;7.57;;
74415;SDS011;62850;42.428;25.618;2023-04-06T08:18:56;13.57;;;7.32;;
74415;SDS011;62850;42.428;25.618;2023-04-06T08:21:22;11.32;;;6.30;;
74415;SDS011;62850;42.428;25.618;2023-04-06T08:23:47;14.20;;;7.53;;
74415;SDS011;62850;42.428;25.618;2023-04-06T08:26:13;13.35;;;7.40;;
74415;SDS011;62850;42.428;25.618;2023-04-06T08:28:38;12.23;;;7.65;;
74415;SDS011;62850;42.428;25.618;2023-04-06T08:31:07;12.18;;;7.95;;
74415;SDS011;62850;42.428;25.618;2023-04-06T08:33:33;10.98;;;7.28;;
74415;SDS011;62850;42.428;25.618;2023-04-06T08:36:07;13.00;;;6.90;;
74415;SDS011;62850;42.428;25.618;2023-04-06T08:38:37;11.35;;;6.88;;
74415;SDS011;62850;42.428;25.618;2023-04-06T08:41:45;12.45;;;7.15;;
74415;SDS011;62850;42.428;25.618;2023-04-06T08:43:57;12.68;;;7.72;;
74415;SDS011;62850;42.428;25.618;2023-04-06T08:46:26;12.02;;;6.65;;
74415;SDS011;62850;42.428;25.618;2023-04-06T08:48:57;13.95;;;7.82;;
74415;SDS011;62850;42.428;25.618;2023-04-06T08:51:24;11.40;;;6.45;;
74415;SDS011;62850;42.428;25.618;2023-04-06T08:53:53;11.80;;;6.85;;
74415;SDS011;62850;42.428;25.618;2023-04-06T08:56:21;11.55;;;7.40;;
74415;SDS011;62850;42.428;25.618;2023-04-06T08:58:47;11.35;;;6.80;;
74415;SDS011;62850;42.428;25.618;2023-04-06T09:01:13;15.07;;;7.15;;
74415;SDS011;62850;42.428;25.618;2023-04-06T09:03:41;14.25;;;6.60;;
74415;SDS011;62850;42.428;25.618;2023-04-06T09:06:07;11.40;;;6.43;;
74415;SDS011;62850;42.428;25.618;2023-04-06T09:08:34;11.18;;;6.60;;
74415;SDS011;62850;42.428;25.618;2023-04-06T09:11:02;12.43;;;6.78;;
74415;SDS011;62850;42.428;25.618;2023-04-06T09:13:28;11.35;;;6.63;;
74415;SDS011;62850;42.428;25.618;2023-04-06T09:16:03;10.70;;;6.32;;
74415;SDS011;62850;42.428;25.618;2023-04-06T09:18:31;12.43;;;7.07;;
74415;SDS011;62850;42.428;25.618;2023-04-06T09:21:01;16.27;;;8.80;;
74415;SDS011;62850;42.428;25.618;2023-04-06T09:23:34;13.57;;;8.32;;
74415;SDS011;62850;42.428;25.618;2023-04-06T09:26:15;11.15;;;6.78;;
74415;SDS011;62850;42.428;25.618;2023-04-06T09:28:42;10.90;;;6.72;;
74415;SDS011;62850;42.428;25.618;2023-04-06T09:31:08;15.50;;;8.07;;
74415;SDS011;62850;42.428;25.618;2023-04-06T09:33:40;12.27;;;7.28;;
74415;SDS011;62850;42.428;25.618;2023-04-06T09:36:07;12.45;;;7.53;;
74415;SDS011;62850;42.428;25.618;2023-04-06T09:38:51;18.40;;;7.85;;
74415;SDS011;62850;42.428;25.618;2023-04-06T09:41:26;14.18;;;7.20;;
74415;SDS011;62850;42.428;25.618;2023-04-06T09:46:30;11.38;;;5.75;;
74415;SDS011;62850;42.428;25.618;2023-04-06T09:48:57;11.95;;;6.32;;
74415;SDS011;62850;42.428;25.618;2023-04-06T09:51:24;11.23;;;6.65;;
74415;SDS011;62850;42.428;25.618;2023-04-06T09:53:55;14.90;;;6.55;;
74415;SDS011;62850;42.428;25.618;2023-04-06T09:58:54;10.38;;;5.78;;
74415;SDS011;62850;42.428;25.618;2023-04-06T10:01:29;10.15;;;6.18;;
74415;SDS011;62850;42.428;25.618;2023-04-06T10:06:27;9.32;;;5.88;;
74415;SDS011;62850;42.428;25.618;2023-04-06T10:08:57;9.32;;;5.30;;
74415;SDS011;62850;42.428;25.618;2023-04-06T10:11:24;9.27;;;5.32;;
74415;SDS011;62850;42.428;25.618;2023-04-06T10:13:50;9.20;;;5.60;;
74415;SDS011;62850;42.428;25.618;2023-04-06T10:16:16;8.48;;;5.40;;
74415;SDS011;62850;42.428;25.618;2023-04-06T10:18:46;11.38;;;4.78;;
74415;SDS011;62850;42.428;25.618;2023-04-06T10:21:19;9.60;;;5.13;;
74415;SDS011;62850;42.428;25.618;2023-04-06T10:23:57;10.90;;;5.22;;
74415;SDS011;62850;42.428;25.618;2023-04-06T10:26:24;11.13;;;5.28;;
74415;SDS011;62850;42.428;25.618;2023-04-06T10:28:51;10.05;;;5.85;;
74415;SDS011;62850;42.428;25.618;2023-04-06T10:31:24;10.07;;;6.40;;
74415;SDS011;62850;42.428;25.618;2023-04-06T10:33:55;9.43;;;6.57;;
74415;SDS011;62850;42.428;25.618;2023-04-06T10:36:25;10.88;;;6.20;;
74415;SDS011;62850;42.428;25.618;2023-04-06T10:39:04;10.73;;;6.63;;
74415;SDS011;62850;42.428;25.618;2023-04-06T10:41:32;9.57;;;6.38;;
74415;SDS011;62850;42.428;25.618;2023-04-06T10:44:01;11.30;;;6.25;;
74415;SDS011;62850;42.428;25.618;2023-04-06T10:46:28;13.45;;;6.97;;
74415;SDS011;62850;42.428;25.618;2023-04-06T10:48:55;10.27;;;6.00;;
74415;SDS011;62850;42.428;25.618;2023-04-06T10:51:25;10.85;;;5.72;;
74415;SDS011;62850;42.428;25.618;2023-04-06T10:53:52;9.60;;;6.53;;
74415;SDS011;62850;42.428;25.618;2023-04-06T10:56:21;8.50;;;5.65;;
74415;SDS011;62850;42.428;25.618;2023-04-06T10:58:52;9.20;;;6.22;;
74415;SDS011;62850;42.428;25.618;2023-04-06T11:01:19;12.15;;;5.57;;
74415;SDS011;62850;42.428;25.618;2023-04-06T11:03:46;12.48;;;5.35;;
74415;SDS011;62850;42.428;25.618;2023-04-06T11:08:50;13.13;;;6.18;;
74415;SDS011;62850;42.428;25.618;2023-04-06T11:11:17;8.38;;;5.50;;
74415;SDS011;62850;42.428;25.618;2023-04-06T11:16:14;9.50;;;5.40;;
74415;SDS011;62850;42.428;25.618;2023-04-06T11:19:16;9.02;;;5.57;;
74415;SDS011;62850;42.428;25.618;2023-04-06T11:21:38;8.23;;;4.88;;
74415;SDS011;62850;42.428;25.618;2023-04-06T11:26:45;7.28;;;4.60;;
74415;SDS011;62850;42.428;25.618;2023-04-06T11:29:20;8.57;;;5.70;;
74415;SDS011;62850;42.428;25.618;2023-04-06T11:34:17;8.18;;;5.22;;
74415;SDS011;62850;42.428;25.618;2023-04-06T11:36:45;13.35;;;5.25;;
74415;SDS011;62850;42.428;25.618;2023-04-06T11:39:12;8.32;;;5.45;;
74415;SDS011;62850;42.428;25.618;2023-04-06T11:41:42;9.02;;;5.40;;
74415;SDS011;62850;42.428;25.618;2023-04-06T11:44:12;8.82;;;5.43;;
74415;SDS011;62850;42.428;25.618;2023-04-06T11:46:38;9.38;;;5.68;;
74415;SDS011;62850;42.428;25.618;2023-04-06T11:49:03;9.73;;;6.13;;
74415;SDS011;62850;42.428;25.618;2023-04-06T11:51:29;10.15;;;5.82;;
74415;SDS011;62850;42.428;25.618;2023-04-06T11:53:54;9.07;;;5.97;;
74415;SDS011;62850;42.428;25.618;2023-04-06T11:56:24;10.00;;;5.85;;
74415;SDS011;62850;42.428;25.618;2023-04-06T11:58:54;8.48;;;5.28;;
74415;SDS011;62850;42.428;25.618;2023-04-06T12:01:21;7.88;;;5.00;;
74415;SDS011;62850;42.428;25.618;2023-04-06T12:03:46;8.85;;;5.85;;
74415;SDS011;62850;42.428;25.618;2023-04-06T12:06:12;8.25;;;5.18;;
74415;SDS011;62850;42.428;25.618;2023-04-06T12:08:37;8.50;;;5.05;;
74415;SDS011;62850;42.428;25.618;2023-04-06T12:11:03;8.90;;;5.50;;
74415;SDS011;62850;42.428;25.618;2023-04-06T12:13:28;7.18;;;4.53;;
74415;SDS011;62850;42.428;25.618;2023-04-06T12:15:54;8.25;;;5.40;;
74415;SDS011;62850;42.428;25.618;2023-04-06T12:18:19;8.15;;;5.05;;
74415;SDS011;62850;42.428;25.618;2023-04-06T12:20:45;6.50;;;4.22;;
74415;SDS011;62850;42.428;25.618;2023-04-06T12:23:10;9.68;;;5.15;;
74415;SDS011;62850;42.428;25.618;2023-04-06T12:25:35;7.88;;;5.30;;
74415;SDS011;62850;42.428;25.618;2023-04-06T12:28:03;13.43;;;5.03;;
74415;SDS011;62850;42.428;25.618;2023-04-06T12:30:29;8.82;;;5.00;;
74415;SDS011;62850;42.428;25.618;2023-04-06T12:32:55;7.30;;;4.68;;
74415;SDS011;62850;42.428;25.618;2023-04-06T12:35:20;7.72;;;4.85;;
74415;SDS011;62850;42.428;25.618;2023-04-06T12:37:46;8.45;;;5.22;;
74415;SDS011;62850;42.428;25.618;2023-04-06T12:40:12;12.85;;;5.30;;
74415;SDS011;62850;42.428;25.618;2023-04-06T12:42:39;8.60;;;5.10;;
74415;SDS011;62850;42.428;25.618;2023-04-06T12:45:08;8.05;;;5.25;;
74415;SDS011;62850;42.428;25.618;2023-04-06T12:47:34;15.07;;;5.90;;
74415;SDS011;62850;42.428;25.618;2023-04-06T12:50:01;7.95;;;5.45;;
74415;SDS011;62850;42.428;25.618;2023-04-06T12:52:27;9.95;;;5.35;;
74415;SDS011;62850;42.428;25.618;2023-04-06T12:54:55;11.13;;;6.80;;
74415;SDS011;62850;42.428;25.618;2023-04-06T12:57:21;14.35;;;7.25;;
74415;SDS011;62850;42.428;25.618;2023-04-06T12:59:48;11.90;;;6.30;;
74415;SDS011;62850;42.428;25.618;2023-04-06T13:02:13;9.93;;;5.53;;
74415;SDS011;62850;42.428;25.618;2023-04-06T13:04:39;9.85;;;5.50;;
74415;SDS011;62850;42.428;25.618;2023-04-06T13:07:05;9.93;;;5.93;;
74415;SDS011;62850;42.428;25.618;2023-04-06T13:09:30;10.77;;;5.72;;
74415;SDS011;62850;42.428;25.618;2023-04-06T13:11:56;11.48;;;6.00;;
74415;SDS011;62850;42.428;25.618;2023-04-06T13:14:21;9.60;;;5.40;;
74415;SDS011;62850;42.428;25.618;2023-04-06T13:16:47;9.23;;;5.65;;
74415;SDS011;62850;42.428;25.618;2023-04-06T13:19:12;11.80;;;5.68;;
74415;SDS011;62850;42.428;25.618;2023-04-06T13:21:38;11.43;;;5.53;;
74415;SDS011;62850;42.428;25.618;2023-04-06T13:24:04;10.30;;;5.72;;
74415;SDS011;62850;42.428;25.618;2023-04-06T13:26:30;12.43;;;6.60;;
74415;SDS011;62850;42.428;25.618;2023-04-06T13:28:56;11.25;;;5.72;;
74415;SDS011;62850;42.428;25.618;2023-04-06T13:31:21;9.40;;;5.85;;
74415;SDS011;62850;42.428;25.618;2023-04-06T13:33:47;11.20;;;5.70;;
74415;SDS011;62850;42.428;25.618;2023-04-06T13:36:13;9.93;;;5.95;;
74415;SDS011;62850;42.428;25.618;2023-04-06T13:38:39;9.60;;;6.25;;
74415;SDS011;62850;42.428;25.618;2023-04-06T13:41:04;10.75;;;6.05;;
74415;SDS011;62850;42.428;25.618;2023-04-06T13:43:30;8.63;;;5.90;;
74415;SDS011;62850;42.428;25.618;2023-04-06T13:45:57;7.75;;;5.22;;
74415;SDS011;62850;42.428;25.618;2023-04-06T13:48:24;7.95;;;4.88;;
74415;SDS011;62850;42.428;25.618;2023-04-06T13:50:51;11.85;;;5.57;;
74415;SDS011;62850;42.428;25.618;2023-04-06T13:53:16;8.18;;;5.63;;
74415;SDS011;62850;42.428;25.618;2023-04-06T13:55:42;9.32;;;5.20;;
74415;SDS011;62850;42.428;25.618;2023-04-06T13:58:08;9.00;;;5.20;;
74415;SDS011;62850;42.428;25.618;2023-04-06T14:00:34;9.23;;;4.75;;
74415;SDS011;62850;42.428;25.618;2023-04-06T14:03:00;8.77;;;5.28;;
74415;SDS011;62850;42.428;25.618;2023-04-06T14:05:25;8.73;;;4.68;;
74415;SDS011;62850;42.428;25.618;2023-04-06T14:07:52;8.55;;;5.05;;
74415;SDS011;62850;42.428;25.618;2023-04-06T14:10:19;7.47;;;4.78;;
74415;SDS011;62850;42.428;25.618;2023-04-06T14:12:47;18.10;;;6.28;;
74415;SDS011;62850;42.428;25.618;2023-04-06T14:15:13;10.63;;;4.63;;
74415;SDS011;62850;42.428;25.618;2023-04-06T14:17:38;12.20;;;5.30;;
74415;SDS011;62850;42.428;25.618;2023-04-06T14:20:07;7.85;;;4.93;;
74415;SDS011;62850;42.428;25.618;2023-04-06T14:22:38;9.88;;;5.13;;
74415;SDS011;62850;42.428;25.618;2023-04-06T14:25:04;12.07;;;5.50;;
74415;SDS011;62850;42.428;25.618;2023-04-06T14:27:30;7.18;;;4.57;;
74415;SDS011;62850;42.428;25.618;2023-04-06T14:29:55;8.07;;;5.30;;
74415;SDS011;62850;42.428;25.618;2023-04-06T14:32:21;7.63;;;5.15;;
74415;SDS011;62850;42.428;25.618;2023-04-06T14:34:46;8.00;;;5.30;;
74415;SDS011;62850;42.428;25.618;2023-04-06T14:37:12;7.72;;;4.40;;